createdAt,value
2017-08-30T00:00:28.804Z,23.65
2017-08-30T00:05:31.466Z,23.32
2017-08-30T00:10:34.494Z,23.36
2017-08-30T00:15:37.109Z,23.51
2017-08-30T00:20:39.772Z,23.51
2017-08-30T00:26:00.438Z,23.52
2017-08-30T00:31:03.186Z,23.55
2017-08-30T00:36:05.565Z,23.60
2017-08-30T00:41:08.347Z,23.63
2017-08-30T00:46:11.032Z,23.64
2017-08-30T00:51:13.778Z,23.62
2017-08-30T00:56:16.527Z,23.61
2017-08-30T01:01:18.940Z,23.55
2017-08-30T01:06:21.587Z,23.52
2017-08-30T01:11:23.932Z,23.47
2017-08-30T01:16:26.001Z,23.29
2017-08-30T01:21:28.782Z,23.11
2017-08-30T01:26:30.752Z,22.96
2017-08-30T01:31:33.390Z,23.04
2017-08-30T01:36:35.770Z,22.97
2017-08-30T01:41:38.076Z,22.96
2017-08-30T01:46:41.285Z,22.91
2017-08-30T01:51:43.923Z,22.91
2017-08-30T01:56:47.035Z,22.80
2017-08-30T02:01:49.751Z,22.94
2017-08-30T02:06:52.376Z,23.06
2017-08-30T02:11:54.985Z,23.30
2017-08-30T02:16:57.566Z,23.44
2017-08-30T02:22:00.315Z,23.51
2017-08-30T02:27:02.380Z,23.59
2017-08-30T02:32:05.100Z,23.68
2017-08-30T02:37:07.856Z,23.64
2017-08-30T02:42:10.514Z,23.62
2017-08-30T02:47:13.186Z,23.48
2017-08-30T02:52:20.996Z,23.71
2017-08-30T02:57:28.304Z,23.73
2017-08-30T03:02:32.107Z,23.89
2017-08-30T03:07:34.901Z,24.05
2017-08-30T03:12:38.104Z,24.13
2017-08-30T03:17:41.241Z,24.19
2017-08-30T03:22:44.710Z,24.06
2017-08-30T03:27:47.335Z,24.05
2017-08-30T03:32:50.012Z,24.05
2017-08-30T03:37:52.897Z,23.99
2017-08-30T03:42:57.298Z,23.74
2017-08-30T03:48:01.338Z,23.80
2017-08-30T03:53:05.108Z,23.88
2017-08-30T03:58:07.733Z,24.00
2017-08-30T04:03:10.670Z,23.98
2017-08-30T04:08:13.781Z,23.91
2017-08-30T04:13:16.017Z,23.91
2017-08-30T04:18:19.073Z,23.99
2017-08-30T04:23:21.825Z,24.09
2017-08-30T04:28:24.342Z,24.08
2017-08-30T04:33:26.339Z,23.94
2017-08-30T04:38:28.843Z,24.03
2017-08-30T04:43:31.448Z,23.96
2017-08-30T04:48:36.328Z,23.93
2017-08-30T04:53:38.327Z,23.86
2017-08-30T04:58:40.323Z,23.84
2017-08-30T05:03:42.311Z,23.84
2017-08-30T05:08:44.307Z,23.93
2017-08-30T05:13:46.309Z,24.00
2017-08-30T05:18:50.668Z,24.19
2017-08-30T05:23:52.672Z,24.31
2017-08-30T05:29:05.980Z,24.50
2017-08-30T05:34:09.922Z,24.78
2017-08-30T05:39:14.089Z,25.10
2017-08-30T05:44:17.198Z,25.52
2017-08-30T05:49:24.588Z,25.73
2017-08-30T05:54:26.759Z,25.87
2017-08-30T05:59:28.773Z,25.88
2017-08-30T06:04:30.901Z,25.78
2017-08-30T06:09:33.815Z,26.08
2017-08-30T06:14:37.512Z,26.17
2017-08-30T06:19:40.760Z,26.23
2017-08-30T06:24:46.520Z,26.33
2017-08-30T06:29:52.278Z,26.55
2017-08-30T06:34:59.505Z,26.72
2017-08-30T06:40:03.213Z,26.79
2017-08-30T06:45:07.072Z,26.79
2017-08-30T06:50:10.278Z,26.69
2017-08-30T06:55:16.835Z,26.80
2017-08-30T07:00:20.236Z,27.12
2017-08-30T07:05:24.228Z,27.42
2017-08-30T07:10:31.755Z,27.64
2017-08-30T07:15:36.909Z,27.87
2017-08-30T07:20:38.899Z,28.07
2017-08-30T07:25:41.362Z,28.28
2017-08-30T07:30:44.886Z,28.56
2017-08-30T07:35:49.016Z,28.98
2017-08-30T07:40:52.742Z,29.23
2017-08-30T07:45:56.727Z,29.02
2017-08-30T07:51:03.767Z,29.14
2017-08-30T07:56:08.620Z,29.15
2017-08-30T08:01:12.355Z,29.07
2017-08-30T08:06:20.220Z,29.22
2017-08-30T08:11:26.507Z,29.44
2017-08-30T08:16:31.320Z,29.51
2017-08-30T08:21:34.964Z,29.65
2017-08-30T08:26:37.603Z,29.82
2017-08-30T08:31:40.219Z,30.05
2017-08-30T08:36:42.666Z,30.39
2017-08-30T08:41:46.132Z,30.57
2017-08-30T08:46:49.990Z,30.56
2017-08-30T08:51:52.314Z,30.72
2017-08-30T08:56:54.616Z,30.73
2017-08-30T09:01:56.865Z,30.86
2017-08-30T09:06:59.081Z,31.33
2017-08-30T09:12:01.326Z,31.44
2017-08-30T09:17:03.797Z,31.38
2017-08-30T09:22:06.171Z,31.20
2017-08-30T09:27:08.744Z,31.18
2017-08-30T09:32:10.980Z,31.21
2017-08-30T09:37:13.418Z,31.32
2017-08-30T09:42:15.783Z,31.45
2017-08-30T09:47:21.139Z,31.64
2017-08-30T09:52:26.159Z,31.67
2017-08-30T09:57:31.411Z,31.82
2017-08-30T10:02:35.707Z,31.85
2017-08-30T10:07:39.934Z,32.28
2017-08-30T10:12:44.730Z,32.62
2017-08-30T10:17:49.880Z,32.87
2017-08-30T10:22:55.113Z,33.09
2017-08-30T10:27:58.808Z,33.33
2017-08-30T10:33:02.303Z,33.81
2017-08-30T10:38:06.772Z,33.90
2017-08-30T10:43:21.685Z,33.89
2017-08-30T10:48:25.092Z,34.06
2017-08-30T10:53:30.940Z,33.61
2017-08-30T10:58:33.556Z,33.30
2017-08-30T11:03:35.921Z,33.16
2017-08-30T11:08:38.365Z,33.27
2017-08-30T11:13:45.186Z,33.84
2017-08-30T11:18:47.475Z,34.32
2017-08-30T11:23:50.034Z,34.38
2017-08-30T11:28:52.615Z,34.29
2017-08-30T11:33:54.947Z,34.60
2017-08-30T11:39:04.128Z,34.96
2017-08-30T11:44:06.419Z,35.31
2017-08-30T11:49:08.623Z,35.52
2017-08-30T11:54:12.997Z,35.45
2017-08-30T11:59:16.518Z,34.66
2017-08-30T12:04:22.533Z,35.04
2017-08-30T12:09:24.889Z,34.10
2017-08-30T12:14:29.765Z,33.67
2017-08-30T12:19:32.298Z,33.34
2017-08-30T12:24:35.024Z,33.01
2017-08-30T12:29:37.339Z,33.42
2017-08-30T12:34:39.812Z,32.71
2017-08-30T12:39:42.353Z,32.57
2017-08-30T12:44:44.857Z,32.09
2017-08-30T12:49:47.908Z,32.11
2017-08-30T12:54:50.386Z,32.12
2017-08-30T12:59:52.763Z,32.13
2017-08-30T13:04:55.207Z,32.29
2017-08-30T13:09:57.692Z,32.54
2017-08-30T13:15:09.176Z,33.02
2017-08-30T13:20:12.398Z,33.75
2017-08-30T13:25:14.929Z,34.11
2017-08-30T13:30:17.965Z,34.02
2017-08-30T13:35:20.530Z,33.81
2017-08-30T13:40:24.282Z,33.90
2017-08-30T13:45:27.589Z,33.99
2017-08-30T13:50:30.288Z,34.13
2017-08-30T13:55:32.706Z,34.72
2017-08-30T14:00:35.046Z,35.26
2017-08-30T14:05:38.117Z,35.17
2017-08-30T14:10:40.088Z,34.96
2017-08-30T14:15:42.135Z,35.05
2017-08-30T14:20:44.129Z,35.33
2017-08-30T14:25:46.845Z,35.55
2017-08-30T14:30:49.181Z,35.60
2017-08-30T14:35:51.500Z,35.38
2017-08-30T14:40:53.766Z,35.25
2017-08-30T14:45:56.085Z,35.27
2017-08-30T14:50:59.643Z,35.37
2017-08-30T14:56:01.895Z,35.42
2017-08-30T15:01:04.132Z,35.32
2017-08-30T15:06:06.097Z,35.25
2017-08-30T15:11:08.558Z,35.13
2017-08-30T15:16:10.852Z,34.80
2017-08-30T15:21:12.845Z,34.70
2017-08-30T15:26:14.825Z,34.75
2017-08-30T15:31:16.785Z,34.66
2017-08-30T15:36:18.946Z,34.56
2017-08-30T15:41:21.152Z,34.59
2017-08-30T15:46:23.193Z,34.37
2017-08-30T15:51:25.185Z,34.31
2017-08-30T15:56:27.132Z,34.15
2017-08-30T16:01:29.109Z,33.93
2017-08-30T16:06:31.049Z,33.63
2017-08-30T16:11:34.304Z,33.48
2017-08-30T16:16:36.568Z,33.39
2017-08-30T16:21:39.876Z,33.26
2017-08-30T16:26:42.159Z,33.00
2017-08-30T16:31:44.388Z,32.82
2017-08-30T16:36:46.807Z,32.68
2017-08-30T16:41:49.265Z,32.61
2017-08-30T16:46:52.077Z,32.55
2017-08-30T16:51:54.522Z,32.37
2017-08-30T16:56:56.878Z,32.27
2017-08-30T17:01:59.254Z,32.13
2017-08-30T17:07:01.541Z,31.96
2017-08-30T17:12:04.058Z,31.73
2017-08-30T17:17:06.383Z,31.70
2017-08-30T17:22:08.914Z,31.54
2017-08-30T17:27:11.209Z,31.38
2017-08-30T17:32:13.231Z,31.24
2017-08-30T17:37:15.206Z,31.18
2017-08-30T17:42:18.635Z,30.90
2017-08-30T17:47:20.705Z,30.97
2017-08-30T17:52:22.703Z,30.85
2017-08-30T17:57:24.856Z,30.73
2017-08-30T18:02:26.877Z,30.66
2017-08-30T18:07:28.875Z,30.56
2017-08-30T18:12:30.914Z,30.42
2017-08-30T18:17:33.266Z,30.26
2017-08-30T18:22:37.795Z,30.04
2017-08-30T18:27:42.344Z,29.76
2017-08-30T18:32:44.890Z,29.46
2017-08-30T18:37:52.337Z,29.24
2017-08-30T18:42:58.227Z,28.39
2017-08-30T18:48:01.313Z,27.95
2017-08-30T18:53:03.447Z,27.46
2017-08-30T18:58:06.027Z,27.22
2017-08-30T19:03:08.085Z,27.05
2017-08-30T19:08:10.386Z,26.80
2017-08-30T19:13:12.958Z,26.60
2017-08-30T19:18:15.246Z,26.35
2017-08-30T19:23:17.749Z,26.05
2017-08-30T19:28:19.905Z,26.19
2017-08-30T19:33:22.061Z,26.26
2017-08-30T19:38:24.301Z,26.28
2017-08-30T19:43:26.659Z,26.23
2017-08-30T19:48:33.833Z,26.08
2017-08-30T19:53:36.181Z,26.24
2017-08-30T19:58:38.595Z,26.32
2017-08-30T20:03:44.249Z,26.30
2017-08-30T20:08:46.491Z,26.30
2017-08-30T20:13:48.773Z,26.28
2017-08-30T20:18:51.061Z,26.14
2017-08-30T20:23:54.643Z,26.13
2017-08-30T20:28:56.635Z,26.05
2017-08-30T20:33:58.590Z,25.78
2017-08-30T20:39:00.572Z,25.84
2017-08-30T20:44:02.621Z,25.90
2017-08-30T20:49:04.656Z,25.88
2017-08-30T20:54:06.619Z,25.79
2017-08-30T20:59:08.543Z,25.87
2017-08-30T21:04:10.528Z,25.82
2017-08-30T21:09:12.528Z,25.91
2017-08-30T21:14:14.522Z,25.89
2017-08-30T21:19:16.505Z,25.92
2017-08-30T21:24:18.585Z,25.90
2017-08-30T21:29:20.720Z,25.70
2017-08-30T21:34:23.291Z,25.43
2017-08-30T21:39:25.312Z,25.26
2017-08-30T21:44:27.271Z,25.14
2017-08-30T21:49:29.215Z,25.02
2017-08-30T21:54:33.120Z,24.94
2017-08-30T21:59:36.692Z,24.87
2017-08-30T22:04:38.833Z,24.81
2017-08-30T22:09:40.793Z,24.75
2017-08-30T22:14:42.792Z,24.80
2017-08-30T22:19:44.795Z,24.77
2017-08-30T22:24:46.843Z,24.73
2017-08-30T22:29:48.951Z,24.74
2017-08-30T22:34:51.054Z,24.69
2017-08-30T22:39:53.165Z,24.77
2017-08-30T22:44:55.147Z,24.73
2017-08-30T22:49:57.128Z,24.58
2017-08-30T22:54:59.112Z,24.53
2017-08-30T23:00:01.087Z,24.45
2017-08-30T23:05:03.852Z,24.39
2017-08-30T23:10:06.493Z,24.28
2017-08-30T23:15:08.453Z,24.26
2017-08-30T23:20:10.931Z,24.27
2017-08-30T23:25:12.971Z,24.24
2017-08-30T23:30:14.950Z,24.22
2017-08-30T23:35:16.943Z,23.85
2017-08-30T23:40:19.067Z,24.19
2017-08-30T23:45:21.333Z,24.15
2017-08-30T23:50:23.420Z,24.04
2017-08-30T23:55:25.390Z,24.00
